Huff, Kentucky
Current Conditions -  °F | °C
As of 10:53 AM on Friday 28 Nov 2014 (Local Time) from KBWG Reporting Station
Clear Clear  
Wind Chill: 31°   Ceiling: Unl
Heat Index: 37°   Visibility: 10mi
Dew Point: 20°   Wind: 8mph
Humidity: 50%   Direction: 190°S
Pressure: 30.38"   Gusts: NA
Location:  37.2379°N, 86.3446°W
Report Text: KBWG 281653Z AUTO 19007KT 10SM CLR 03/M07 A3038 RMK AO2 SLP294 T00281067
Loading
Personal Weather Stations






























Interactive Weather Map New forecast layout! Learn more

10-Day Weather Forecast

Advertisements
Track Severe Weather on mobile